Time;durP1;ratioP1;P1;durP2;ratioP2;P2;SDS_P1;SDS_P2;PMS_P1;PMS_P2;Temp;Humidity;BMP_temperature;BMP_pressure;BME280_temperature;BME280_humidity;BME280_pressure;Samples;Min_cycle;Max_cycle;Signal;HPM_P1;HPM_P2
2021/03/26 00:03:56;;;;;;;0.10;0.10;;;;;;;5.78;89.28;102016.00;10334503;28;20070;-92
2021/03/26 00:08:57;;;;;;;0.10;0.10;;;;;;;5.56;89.27;102005.97;10332657;28;20050;-92
2021/03/26 00:13:58;;;;;;;0.10;0.10;;;;;;;5.35;89.59;102016.06;10334182;28;20041;-92
2021/03/26 00:18:58;;;;;;;0.10;0.10;;;;;;;5.24;89.96;102022.06;10335883;28;20030;-90
2021/03/26 00:23:59;;;;;;;0.10;0.10;;;;;;;5.18;90.90;102025.06;10338819;28;20035;-92
2021/03/26 00:29:00;;;;;;;0.20;0.20;;;;;;;5.08;90.60;102026.56;10339493;28;20094;-91
2021/03/26 00:34:00;;;;;;;0.20;0.20;;;;;;;4.81;89.61;102008.81;10342300;28;20034;-92
2021/03/26 00:39:04;;;;;;;0.17;0.17;;;;;;;4.67;90.13;102012.28;10343277;28;20083;-91
2021/03/26 00:44:05;;;;;;;0.20;0.20;;;;;;;4.46;90.61;102005.66;10341132;28;20022;-92
2021/03/26 00:49:06;;;;;;;0.10;0.10;;;;;;;4.25;91.26;101999.88;10341748;28;20138;-92
2021/03/26 00:54:07;;;;;;;0.17;0.17;;;;;;;4.23;91.42;102007.84;10342064;28;20023;-92
2021/03/26 00:59:07;;;;;;;0.20;0.20;;;;;;;4.18;91.95;101995.88;10340532;28;20397;-91
2021/03/26 01:04:08;;;;;;;0.20;0.20;;;;;;;4.14;91.95;102002.28;10341297;28;20057;-90
2021/03/26 01:09:09;;;;;;;0.20;0.20;;;;;;;3.93;92.27;101991.19;10345672;28;20019;-94
2021/03/26 01:14:18;;;;;;;0.20;0.20;;;;;;;4.00;92.21;102003.06;10340441;28;20266;-91
2021/03/26 01:19:19;;;;;;;0.20;0.20;;;;;;;4.02;92.77;102009.09;10339150;28;20037;-92
2021/03/26 01:24:20;;;;;;;0.20;0.20;;;;;;;4.03;92.42;102011.63;10338748;28;20038;-93
2021/03/26 01:29:20;;;;;;;0.20;0.20;;;;;;;4.00;92.34;102006.53;10335419;28;20149;-91
2021/03/26 01:34:22;;;;;;;0.20;0.20;;;;;;;4.02;92.75;102003.84;10338804;28;20083;-92
2021/03/26 01:39:22;;;;;;;0.20;0.20;;;;;;;3.95;92.09;101994.56;10335267;28;20038;-92
2021/03/26 01:44:28;;;;;;;0.10;0.10;;;;;;;3.82;91.62;101990.00;10330404;28;20476;-91
2021/03/26 01:49:28;;;;;;;0.10;0.10;;;;;;;3.71;92.62;101970.44;10339708;28;20041;-92
2021/03/26 01:54:30;;;;;;;0.20;0.20;;;;;;;3.80;92.89;101977.81;10336980;28;20027;-92
2021/03/26 01:59:31;;;;;;;0.10;0.10;;;;;;;3.84;92.19;101979.38;10334612;28;20046;-93
2021/03/26 02:04:39;;;;;;;0.20;0.20;;;;;;;3.91;92.81;101979.88;10339486;28;20046;-94
2021/03/26 02:09:40;;;;;;;0.20;0.20;;;;;;;3.91;92.86;101961.41;10335108;28;20090;-91
2021/03/26 02:14:56;;;;;;;0.10;0.10;;;;;;;3.96;92.76;101962.00;10335940;28;20027;-92
2021/03/26 02:19:56;;;;;;;0.20;0.20;;;;;;;4.05;92.12;101974.66;10331460;28;20039;-92
2021/03/26 02:24:57;;;;;;;0.20;0.20;;;;;;;3.92;92.46;101953.41;10330319;28;20106;-94
2021/03/26 02:30:00;;;;;;;0.20;0.20;;;;;;;3.89;92.32;101953.56;10332901;28;20037;-92
2021/03/26 02:35:12;;;;;;;0.10;0.10;;;;;;;3.92;92.05;101963.09;10373646;23;20057;-91
2021/03/26 02:40:36;;;;;;;0.20;0.20;;;;;;;3.78;92.37;101951.56;10372801;28;20036;-91
2021/03/26 02:45:49;;;;;;;0.10;0.10;;;;;;;3.83;92.76;101956.56;10335896;28;20038;-90
2021/03/26 02:51:00;;;;;;;0.20;0.20;;;;;;;3.76;93.27;101952.59;10335410;28;20037;-91
2021/03/26 02:56:09;;;;;;;0.20;0.20;;;;;;;3.79;92.77;101968.25;10331926;28;20121;-91
2021/03/26 03:01:15;;;;;;;0.20;0.20;;;;;;;3.79;92.85;101968.25;10332626;28;20092;-91
2021/03/26 03:06:27;;;;;;;0.20;0.20;;;;;;;3.66;93.34;101951.41;10348518;28;20042;-91
2021/03/26 03:11:53;;;;;;;0.20;0.20;;;;;;;3.70;93.14;101956.44;10330397;28;20488;-91
2021/03/26 03:17:02;;;;;;;0.20;0.20;;;;;;;3.61;93.31;101955.16;10330463;28;20030;-91
2021/03/26 03:22:09;;;;;;;0.20;0.20;;;;;;;3.57;93.10;101944.88;10330111;28;20049;-91
2021/03/26 03:27:24;;;;;;;0.20;0.20;;;;;;;3.63;93.61;101955.06;10331249;28;20114;-91
2021/03/26 03:32:42;;;;;;;0.15;0.15;;;;;;;3.59;93.38;101959.66;10334930;28;20506;-90
2021/03/26 03:37:54;;;;;;;0.20;0.20;;;;;;;3.58;94.22;101965.03;10362844;28;20037;-91
2021/03/26 03:43:21;;;;;;;0.20;0.20;;;;;;;3.56;93.70;101964.25;10369779;28;20033;-91
2021/03/26 03:48:49;;;;;;;0.20;0.20;;;;;;;3.45;94.17;101951.69;10369450;28;20125;-91
2021/03/26 03:54:00;;;;;;;0.20;0.20;;;;;;;3.45;94.53;101938.50;10370478;28;20061;-91
2021/03/26 03:59:09;;;;;;;0.20;0.20;;;;;;;3.45;93.94;101935.88;10369996;28;20400;-91
2021/03/26 04:04:20;;;;;;;0.20;0.20;;;;;;;3.45;94.02;101937.66;10361335;28;20053;-91
2021/03/26 04:09:26;;;;;;;0.20;0.20;;;;;;;3.39;93.90;101933.59;10369551;28;20037;-91
2021/03/26 04:14:40;;;;;;;0.22;0.22;;;;;;;3.47;95.04;101943.72;10370238;28;20033;-91
2021/03/26 04:19:45;;;;;;;0.20;0.20;;;;;;;3.37;93.84;101928.41;10369393;28;20172;-91
2021/03/26 04:24:57;;;;;;;0.22;0.22;;;;;;;3.40;94.54;101938.78;10369689;28;20058;-91
2021/03/26 04:30:19;;;;;;;0.30;0.30;;;;;;;3.50;94.80;101941.75;10369414;28;20112;-91
2021/03/26 04:35:22;;;;;;;0.20;0.20;;;;;;;3.34;94.02;101918.03;10354966;28;20045;-91
2021/03/26 04:40:31;;;;;;;0.17;0.17;;;;;;;3.43;94.77;101944.78;10328874;28;20142;-91
2021/03/26 04:45:56;;;;;;;0.15;0.15;;;;;;;3.45;95.33;101941.13;10328533;28;20046;-91
2021/03/26 04:51:11;;;;;;;0.10;0.10;;;;;;;3.51;95.87;101938.16;10327866;28;20093;-92
2021/03/26 04:56:21;;;;;;;0.20;0.20;;;;;;;3.54;95.87;101938.00;10329313;28;20126;-91
2021/03/26 05:01:22;;;;;;;0.20;0.20;;;;;;;3.51;95.58;101926.78;10328090;28;20047;-91
2021/03/26 05:06:35;;;;;;;0.17;0.17;;;;;;;3.47;94.42;101925.28;10357618;28;20072;-91
2021/03/26 05:11:43;;;;;;;0.20;0.20;;;;;;;3.46;95.28;101929.69;10369966;28;20030;-90
2021/03/26 05:16:56;;;;;;;0.20;0.20;;;;;;;3.47;95.70;101920.84;10376417;28;20030;-91
2021/03/26 05:22:09;;;;;;;0.20;0.20;;;;;;;3.69;95.32;101930.16;10375077;28;20393;-91
2021/03/26 05:27:12;;;;;;;0.10;0.10;;;;;;;3.77;95.50;101920.88;10377438;28;20046;-91
2021/03/26 05:32:22;;;;;;;0.13;0.13;;;;;;;3.74;94.49;101910.50;10372721;28;20084;-91
2021/03/26 05:37:31;;;;;;;0.20;0.20;;;;;;;3.91;94.86;101896.34;10368742;28;20036;-92
2021/03/26 05:42:49;;;;;;;0.10;0.10;;;;;;;4.27;94.00;101906.50;10358862;28;20074;-91
2021/03/26 05:48:16;;;;;;;0.17;0.17;;;;;;;4.81;92.75;101924.34;10349699;28;20623;-91
2021/03/26 05:53:36;;;;;;;0.20;0.20;;;;;;;5.26;90.65;101918.91;10373813;28;20125;-91
2021/03/26 05:59:03;;;;;;;0.10;0.10;;;;;;;5.80;88.62;101917.13;10375052;28;20119;-91
2021/03/26 06:04:25;;;;;;;0.17;0.17;;;;;;;6.29;86.49;101920.97;10361290;28;20038;-91
2021/03/26 06:09:45;;;;;;;0.20;0.20;;;;;;;6.52;84.69;101899.03;10377613;28;20096;-91
2021/03/26 06:14:58;;;;;;;0.10;0.10;;;;;;;7.06;83.16;101905.00;10374144;28;20041;-91
2021/03/26 06:20:17;;;;;;;0.05;0.05;;;;;;;7.59;81.56;101905.53;10369567;28;20037;-91
2021/03/26 06:26:06;;;;;;;0.10;0.10;;;;;;;8.09;80.11;101888.50;10338784;28;20061;-91
2021/03/26 06:31:52;;;;;;;0.20;0.20;;;;;;;8.68;78.09;101889.31;10334271;28;20053;-91
2021/03/26 06:43:20;;;;;;;0.00;0.00;;;;;;;10.08;74.47;101884.06;10373123;28;20026;-92
2021/03/26 06:48:43;;;;;;;0.00;0.00;;;;;;;10.64;71.84;101884.53;10372521;28;20436;-91
2021/03/26 06:54:25;;;;;;;0.00;0.00;;;;;;;11.08;70.51;101869.16;10372174;28;20459;-91
2021/03/26 06:59:35;;;;;;;0.00;0.00;;;;;;;11.90;68.13;101878.63;10372762;28;20045;-91
2021/03/26 07:05:22;;;;;;;;;;;;;;;;;;;;;
2021/03/26 07:17:09;;;;;;;0.00;0.00;;;;;;;13.48;63.55;101882.19;10296328;28;20039;-91
2021/03/26 07:28:37;;;;;;;0.10;0.10;;;;;;;14.29;60.20;101886.53;10285385;28;20042;-92
2021/03/26 07:33:55;;;;;;;0.10;0.10;;;;;;;14.64;59.27;101868.69;10339785;28;20045;-92
2021/03/26 07:39:16;;;;;;;0.20;0.20;;;;;;;14.38;59.37;101877.53;10291246;28;20031;-92
2021/03/26 07:50:56;;;;;;;0.20;0.20;;;;;;;14.29;58.62;101883.88;10128066;29;20044;-91
2021/03/26 08:02:24;;;;;;;0.10;0.10;;;;;;;15.73;54.79;101891.97;10379328;23;20394;-92
2021/03/26 08:14:03;;;;;;;0.20;0.20;;;;;;;16.53;52.11;101879.44;10216444;29;20111;-92
2021/03/26 08:19:41;;;;;;;0.43;0.20;;;;;;;16.29;50.53;101879.50;10279958;28;20106;-92
2021/03/26 08:25:08;;;;;;;0.10;0.10;;;;;;;16.07;50.71;101881.88;10275577;28;20038;-91
2021/03/26 08:30:40;;;;;;;0.20;0.20;;;;;;;16.59;50.02;101880.59;10274678;28;20035;-91
2021/03/26 09:39:21;;;;;;;;;;;;;;;;;;;;;
2021/03/26 09:45:27;;;;;;;0.10;0.10;;;;;;;14.88;49.34;101841.94;10398769;28;20480;-95
2021/03/26 09:50:46;;;;;;;0.00;0.00;;;;;;;14.76;50.92;101859.34;10336377;28;20078;-95
2021/03/26 09:56:28;;;;;;;0.08;0.08;;;;;;;14.45;50.63;101843.72;10394506;28;20100;-95
2021/03/26 10:02:22;;;;;;;0.10;0.10;;;;;;;14.03;50.57;101830.28;10398152;28;20106;-95
2021/03/26 10:08:19;;;;;;;;;;;;;;;;;;;;;
2021/03/26 10:14:11;;;;;;;0.10;0.10;;;;;;;13.89;51.72;101842.38;10377892;28;20046;-95
2021/03/26 10:25:36;;;;;;;0.00;0.00;;;;;;;14.10;50.61;101850.06;10312744;28;20042;-94
2021/03/26 10:31:39;;;;;;;0.00;0.00;;;;;;;14.34;51.24;101827.09;10405961;28;20040;-93
2021/03/26 10:37:16;;;;;;;0.10;0.10;;;;;;;14.12;50.09;101848.06;10389621;28;20037;-93
2021/03/26 10:48:05;;;;;;;;;;;;;;;;;;;;;
2021/03/26 11:00:07;;;;;;;0.00;0.00;;;;;;;13.80;52.13;101800.47;10363841;28;20088;-93
2021/03/26 11:18:05;;;;;;;0.00;0.00;;;;;;;13.52;53.39;101813.97;10402263;28;20033;-94
2021/03/26 11:24:10;;;;;;;0.10;0.10;;;;;;;13.50;52.97;101807.94;10408305;28;20049;-92
2021/03/26 11:29:51;;;;;;;0.03;0.03;;;;;;;13.65;52.08;101804.72;10385154;28;20053;-93
2021/03/26 11:35:32;;;;;;;0.00;0.00;;;;;;;13.89;51.43;101786.16;10405865;28;20034;-92
2021/03/26 11:41:21;;;;;;;0.03;0.03;;;;;;;14.17;51.27;101784.16;10407331;28;20083;-92
2021/03/26 11:52:37;;;;;;;0.00;0.00;;;;;;;14.23;48.61;101759.38;10397215;28;20137;-93
2021/03/26 11:58:47;;;;;;;;;;;;;;;;;;;;;
2021/03/26 12:04:59;;;;;;;0.00;0.00;;;;;;;14.56;50.45;101737.25;10302365;28;20030;-94
2021/03/26 12:10:39;;;;;;;0.10;0.10;;;;;;;14.86;49.81;101750.06;10304295;28;20041;-92
2021/03/26 12:22:45;;;;;;;;;;;;;;;;;;;;;
2021/03/26 12:28:27;;;;;;;0.00;0.00;;;;;;;14.79;48.84;101702.63;10404903;28;20033;-94
2021/03/26 12:34:18;;;;;;;0.10;0.10;;;;;;;14.62;49.46;101680.28;10381567;28;20053;-95
2021/03/26 12:40:18;;;;;;;;;;;;;;;;;;;;;
2021/03/26 12:45:49;;;;;;;;;;;;;;;;;;;;;
2021/03/26 13:21:01;;;;;;;0.08;0.08;;;;;;;15.21;46.38;101645.28;10281499;29;20227;-95
2021/03/26 13:33:02;;;;;;;0.10;0.10;;;;;;;14.84;46.53;101619.81;10236971;29;20042;-95
2021/03/26 13:43:58;;;;;;;0.10;0.10;;;;;;;14.80;47.81;101605.88;10552083;23;20064;-95
2021/03/26 13:49:38;;;;;;;0.03;0.03;;;;;;;15.09;48.90;101585.75;10378592;28;20050;-94
2021/03/26 13:55:39;;;;;;;;;;;;;;;;;;;;;
2021/03/26 14:08:02;;;;;;;;;;;;;;;;;;;;;
2021/03/26 14:13:44;;;;;;;0.10;0.10;;;;;;;14.80;51.61;101573.72;10362242;28;20035;-95
2021/03/26 14:19:27;;;;;;;0.03;0.03;;;;;;;14.71;53.42;101555.94;10377778;28;20286;-94
2021/03/26 14:42:41;;;;;;;0.00;0.00;;;;;;;14.16;50.43;101521.72;10300698;28;20106;-94
2021/03/26 14:48:26;;;;;;;;;;;;;;;;;;;;;
2021/03/26 15:12:20;;;;;;;;;;;;;;;;;;;;;
2021/03/26 15:18:29;;;;;;;0.00;0.00;;;;;;;14.14;50.19;101483.56;10303714;28;20054;-94
2021/03/26 17:04:59;;;;;;;;;;;;;;;;;;;;;
2021/03/26 17:16:27;;;;;;;0.00;0.00;;;;;;;11.83;56.26;101430.84;10383587;28;20034;-90
2021/03/26 17:22:05;;;;;;;0.00;0.00;;;;;;;11.59;57.18;101428.78;10379217;28;20048;-91
2021/03/26 17:33:54;;;;;;;0.00;0.00;;;;;;;11.27;57.94;101428.25;10305072;28;20163;-93
2021/03/26 17:39:31;;;;;;;0.03;0.03;;;;;;;11.07;58.96;101424.84;10380043;28;20037;-92
2021/03/26 17:44:49;;;;;;;0.00;0.00;;;;;;;10.86;58.67;101422.44;10376277;28;20042;-92
2021/03/26 17:50:27;;;;;;;0.00;0.00;;;;;;;10.71;60.28;101421.22;10380259;28;20613;-93
2021/03/26 18:01:42;;;;;;;0.00;0.00;;;;;;;10.31;61.64;101394.84;10381095;28;20125;-91
2021/03/26 18:06:59;;;;;;;0.00;0.00;;;;;;;10.25;61.13;101393.56;10378758;28;20130;-92
2021/03/26 18:12:20;;;;;;;0.00;0.00;;;;;;;10.31;61.15;101413.47;10377859;28;20029;-92
2021/03/26 18:18:06;;;;;;;;;;;;;;;;;;;;;
2021/03/26 18:23:21;;;;;;;0.10;0.10;;;;;;;10.12;61.52;101393.00;10359704;28;20112;-91
2021/03/26 18:29:06;;;;;;;0.00;0.00;;;;;;;10.35;60.17;101407.72;10375590;28;20041;-90
2021/03/26 18:35:09;;;;;;;0.00;0.00;;;;;;;10.37;60.14;101413.75;10347329;28;20072;-92
2021/03/26 18:46:40;;;;;;;0.00;0.00;;;;;;;10.25;60.68;101409.53;10325767;28;19921;-91
2021/03/26 18:52:07;;;;;;;0.00;0.00;;;;;;;10.24;60.35;101407.88;10334314;28;20037;-91
2021/03/26 19:40:34;;;;;;;0.00;0.00;;;;;;;10.00;62.12;101362.22;10517557;23;20050;-93
2021/03/26 19:57:32;;;;;;;0.00;0.00;;;;;;;10.05;60.79;101336.84;10207180;29;20047;-93
2021/03/26 20:03:23;;;;;;;0.00;0.00;;;;;;;10.20;61.76;101346.06;10233864;28;20046;-94
2021/03/26 20:08:45;;;;;;;0.00;0.00;;;;;;;10.22;61.03;101329.94;10283801;28;20530;-93
2021/03/26 20:14:14;;;;;;;;;;;;;;;;;;;;;
2021/03/26 20:19:45;;;;;;;0.00;0.00;;;;;;;10.56;59.23;101314.31;10291862;28;20094;-93
2021/03/26 20:25:19;;;;;;;;;;;;;;;;;;;;;
2021/03/26 20:31:28;;;;;;;0.00;0.00;;;;;;;10.70;58.84;101296.97;10294057;28;20039;-92
2021/03/26 20:36:42;;;;;;;0.10;0.10;;;;;;;10.67;59.58;101286.63;10336637;23;20118;-88
2021/03/26 20:42:00;;;;;;;;;;;;;;;10.74;59.14;101287.72;10336287;28;20038;-90
2021/03/26 20:47:00;;;;;;;0.00;0.00;;;;;;;10.76;58.58;101268.91;10360223;28;19914;-89
2021/03/26 20:52:21;;;;;;;0.00;0.00;;;;;;;10.73;58.71;101263.88;10345378;28;20146;-92
2021/03/26 20:57:45;;;;;;;0.00;0.00;;;;;;;10.61;59.81;101265.91;10376987;28;20022;-88
2021/03/26 21:02:49;;;;;;;;;;;;;;;10.46;60.83;101257.56;10351711;28;20110;-90
2021/03/26 21:08:12;;;;;;;0.00;0.00;;;;;;;10.30;61.53;101252.06;10340494;28;20002;-90
2021/03/26 21:13:19;;;;;;;0.00;0.00;;;;;;;10.13;62.99;101250.97;10307364;28;20035;-91
2021/03/26 21:18:38;;;;;;;0.00;0.00;;;;;;;10.05;63.93;101242.88;10305133;28;20074;-90
2021/03/26 21:23:53;;;;;;;0.00;0.00;;;;;;;9.92;63.30;101238.72;10310744;28;20042;-91
2021/03/26 21:28:58;;;;;;;0.05;0.05;;;;;;;9.82;64.53;101231.72;10309790;28;20102;-90
2021/03/26 21:34:19;;;;;;;0.00;0.00;;;;;;;9.75;64.85;101237.63;10313234;28;20034;-90
2021/03/26 21:39:35;;;;;;;0.00;0.00;;;;;;;9.63;65.19;101243.22;10316635;28;20066;-90
2021/03/26 21:44:43;;;;;;;0.00;0.00;;;;;;;9.43;65.87;101222.00;10315670;28;20039;-90
2021/03/26 21:50:14;;;;;;;0.00;0.00;;;;;;;9.32;66.69;101219.50;10318529;28;20043;-89
2021/03/26 21:55:40;;;;;;;0.00;0.00;;;;;;;9.21;67.04;101222.31;10315033;28;20038;-89
2021/03/26 22:00:57;;;;;;;0.00;0.00;;;;;;;9.09;67.95;101234.06;10316895;28;20054;-90
2021/03/26 22:06:13;;;;;;;0.10;0.00;;;;;;;8.86;67.95;101226.34;10337314;28;20039;-90
2021/03/26 22:11:20;;;;;;;0.00;0.00;;;;;;;8.70;68.94;101231.38;10322056;28;20038;-91
2021/03/26 22:16:38;;;;;;;0.00;0.00;;;;;;;8.55;69.81;101221.13;10318836;28;20066;-91
2021/03/26 22:21:44;;;;;;;0.00;0.00;;;;;;;8.39;69.72;101216.31;10315247;28;20086;-89
2021/03/26 22:26:44;;;;;;;0.00;0.00;;;;;;;8.31;70.26;101218.78;10319989;28;20038;-89
2021/03/26 22:31:51;;;;;;;0.00;0.00;;;;;;;8.12;71.22;101197.50;10320510;28;20014;-90
2021/03/26 22:37:24;;;;;;;0.00;0.00;;;;;;;8.03;71.47;101201.81;10322391;28;20014;-91
2021/03/26 22:42:51;;;;;;;0.05;0.05;;;;;;;7.93;71.81;101203.56;10317823;28;20035;-90
2021/03/26 22:48:16;;;;;;;0.10;0.10;;;;;;;7.86;72.80;101211.22;10320151;28;20054;-90
2021/03/26 22:53:52;;;;;;;0.00;0.00;;;;;;;7.83;72.82;101208.81;10314893;28;20066;-90
2021/03/26 22:59:12;;;;;;;0.10;0.10;;;;;;;7.96;72.96;101197.97;10310027;28;20035;-90
2021/03/26 23:04:23;;;;;;;0.05;0.05;;;;;;;8.02;72.59;101192.13;10315481;28;20042;-90
2021/03/26 23:09:30;;;;;;;0.00;0.00;;;;;;;7.98;72.42;101176.66;10315358;28;20045;-89
2021/03/26 23:14:48;;;;;;;0.10;0.10;;;;;;;8.02;72.01;101181.53;10312686;28;20037;-90
2021/03/26 23:19:57;;;;;;;0.10;0.10;;;;;;;8.00;72.37;101169.38;10309766;28;20045;-91
2021/03/26 23:25:05;;;;;;;0.03;0.03;;;;;;;7.98;72.28;101156.25;10311247;28;20034;-90
2021/03/26 23:30:27;;;;;;;0.10;0.10;;;;;;;8.06;71.89;101151.13;10309869;28;20038;-90
2021/03/26 23:35:33;;;;;;;0.10;0.10;;;;;;;8.15;71.68;101138.84;10311328;28;20035;-90
2021/03/26 23:40:39;;;;;;;0.00;0.00;;;;;;;8.25;71.47;101123.78;10308545;28;20406;-90
2021/03/26 23:46:10;;;;;;;0.00;0.00;;;;;;;8.32;70.87;101121.41;10308571;28;20041;-89
2021/03/26 23:51:41;;;;;;;0.00;0.00;;;;;;;8.31;71.28;101107.31;10297769;28;20062;-91
2021/03/26 23:56:49;;;;;;;0.10;0.10;;;;;;;8.40;71.13;101110.97;10283094;28;20062;-90
